createdAt,value
2023-08-12T08:18:13.893Z,4.50
2023-08-12T08:20:46.146Z,7.50
2023-08-12T08:23:13.744Z,3.10
2023-08-12T08:25:41.688Z,6.00
2023-08-12T08:28:08.838Z,6.80
2023-08-12T08:30:37.432Z,3.60
2023-08-12T08:33:05.331Z,4.00
2023-08-12T08:35:32.367Z,4.30
2023-08-12T08:37:59.178Z,3.10
2023-08-12T08:40:26.846Z,4.30
2023-08-12T08:42:54.498Z,4.00
2023-08-12T08:45:22.704Z,2.80
2023-08-12T08:47:50.764Z,4.40
2023-08-12T08:50:18.297Z,3.20
2023-08-12T08:52:45.448Z,4.00
2023-08-12T08:55:13.931Z,6.80
2023-08-12T08:57:47.775Z,7.00
2023-08-12T09:00:18.684Z,10.50
2023-08-12T09:02:49.143Z,4.70
2023-08-12T09:05:16.245Z,3.20
2023-08-12T09:07:45.021Z,3.40
2023-08-12T09:10:15.013Z,3.80
2023-08-12T09:12:43.669Z,8.00
2023-08-12T09:15:10.900Z,3.90
2023-08-12T09:17:38.382Z,8.10
2023-08-12T09:20:12.251Z,4.50
2023-08-12T09:22:42.412Z,3.10
2023-08-12T09:25:10.361Z,5.50
2023-08-12T09:27:38.517Z,4.60
2023-08-12T09:30:06.799Z,2.60
2023-08-12T09:32:35.247Z,3.40
2023-08-12T09:35:03.950Z,3.60
2023-08-12T09:37:31.001Z,5.00
2023-08-12T09:39:58.757Z,3.70
2023-08-12T09:42:25.600Z,3.80
2023-08-12T09:44:52.455Z,5.00
2023-08-12T09:47:20.102Z,3.40
2023-08-12T09:49:46.843Z,4.00
2023-08-12T09:52:14.010Z,6.40
2023-08-12T09:54:41.659Z,3.30
2023-08-12T09:57:09.005Z,3.70
2023-08-12T09:59:36.281Z,2.90
2023-08-12T10:02:07.755Z,3.80
2023-08-12T10:04:42.392Z,4.70
2023-08-12T10:07:10.511Z,5.70
2023-08-12T10:09:38.176Z,5.80
2023-08-12T10:12:09.909Z,13.20
2023-08-12T10:14:36.875Z,2.90
2023-08-12T10:17:06.071Z,5.20
2023-08-12T10:19:34.331Z,3.50
2023-08-12T10:22:01.175Z,5.90
2023-08-12T10:24:28.632Z,4.60
2023-08-12T10:26:55.371Z,9.80
2023-08-12T10:29:25.387Z,2.70
2023-08-12T10:31:52.271Z,4.90
2023-08-12T10:34:22.869Z,3.00
2023-08-12T10:37:02.788Z,3.70
2023-08-12T10:39:33.812Z,3.40
2023-08-12T10:42:01.022Z,3.30
2023-08-12T10:44:48.829Z,2.90
2023-08-12T10:47:15.852Z,3.30
2023-08-12T10:49:43.847Z,7.40
2023-08-12T10:52:27.177Z,6.10
2023-08-12T10:54:54.034Z,4.80
2023-08-12T10:57:36.114Z,3.10
2023-08-12T11:00:04.027Z,6.80
2023-08-12T11:02:34.399Z,7.50
2023-08-12T11:05:03.460Z,9.20
2023-08-12T11:07:34.378Z,5.70
2023-08-12T11:10:15.517Z,3.20
2023-08-12T11:12:56.599Z,3.30
2023-08-12T11:15:41.971Z,2.80
2023-08-12T11:18:10.671Z,7.50
2023-08-12T11:20:37.713Z,3.70
2023-08-12T11:23:05.883Z,4.80
2023-08-12T11:25:33.440Z,4.30
2023-08-12T11:28:00.993Z,5.10
2023-08-12T11:30:31.071Z,4.80
2023-08-12T11:33:01.074Z,5.40
2023-08-12T11:35:29.008Z,3.60
2023-08-12T11:37:59.011Z,7.70
2023-08-12T11:40:27.511Z,6.80
2023-08-12T11:42:55.286Z,3.30
2023-08-12T11:45:25.597Z,4.20
2023-08-12T11:47:56.150Z,6.00
2023-08-12T11:50:25.321Z,5.60
2023-08-12T11:52:53.069Z,4.00
2023-08-12T11:55:19.901Z,2.90
2023-08-12T11:57:46.844Z,8.80
2023-08-12T12:00:15.077Z,6.90
2023-08-12T12:02:46.602Z,5.10
2023-08-12T12:05:13.824Z,5.80
2023-08-12T12:07:40.869Z,2.90
2023-08-12T12:10:08.430Z,2.50
2023-08-12T12:12:38.753Z,7.70
2023-08-12T12:15:06.927Z,6.90
2023-08-12T12:17:33.885Z,3.60
2023-08-12T12:20:01.216Z,4.00
2023-08-12T12:22:29.819Z,8.20
2023-08-12T12:25:00.561Z,15.30
2023-08-12T12:27:27.689Z,2.60
2023-08-12T12:29:54.742Z,4.70
2023-08-12T12:32:21.681Z,4.20
2023-08-12T12:34:48.532Z,2.20
2023-08-12T12:37:15.644Z,3.10
2023-08-12T12:39:42.506Z,4.40
2023-08-12T12:42:10.965Z,2.60
2023-08-12T12:44:38.136Z,3.40
2023-08-12T12:47:05.595Z,4.30
2023-08-12T12:49:32.845Z,5.60
2023-08-12T12:51:59.791Z,3.40
2023-08-12T12:54:26.732Z,7.00
2023-08-12T12:56:53.579Z,7.10
2023-08-12T12:59:20.437Z,3.60
2023-08-12T13:01:47.811Z,3.00
2023-08-12T13:04:14.715Z,7.20
2023-08-12T13:06:41.762Z,2.60
2023-08-12T13:09:08.713Z,7.00
2023-08-12T13:11:36.371Z,2.50
2023-08-12T13:14:04.033Z,6.80
2023-08-12T13:16:31.177Z,5.70
2023-08-12T13:18:59.045Z,2.50
2023-08-12T13:21:26.601Z,2.00
2023-08-12T13:23:53.547Z,4.20
2023-08-12T13:26:20.588Z,6.80
2023-08-12T13:28:47.952Z,4.50
2023-08-12T13:31:15.493Z,2.90
2023-08-12T13:33:42.858Z,6.70
2023-08-12T13:36:10.009Z,4.90
2023-08-12T13:38:36.949Z,2.50
2023-08-12T13:41:04.320Z,6.80
2023-08-12T13:43:31.357Z,2.60
2023-08-12T13:45:58.866Z,4.10
2023-08-12T13:48:25.656Z,6.10
2023-08-12T13:50:53.632Z,2.80
2023-08-12T13:53:21.021Z,5.60
2023-08-12T13:55:48.013Z,2.80
2023-08-12T13:58:14.962Z,5.80
2023-08-12T14:00:42.423Z,12.30
2023-08-12T14:03:09.460Z,2.90
2023-08-12T14:05:36.320Z,5.80
2023-08-12T14:08:03.771Z,5.50
2023-08-12T14:10:31.549Z,2.80
2023-08-12T14:12:58.580Z,5.20
2023-08-12T14:15:25.416Z,4.40
2023-08-12T14:17:52.255Z,6.80
2023-08-12T14:20:19.502Z,3.90
2023-08-12T14:22:46.241Z,5.00
2023-08-12T14:25:13.531Z,2.50
2023-08-12T14:27:40.866Z,4.50
2023-08-12T14:30:08.922Z,3.60
2023-08-12T14:32:36.004Z,6.30
2023-08-12T14:35:04.491Z,2.60
2023-08-12T14:37:31.456Z,4.40
2023-08-12T14:39:58.328Z,2.80
2023-08-12T14:42:25.277Z,10.60
2023-08-12T14:44:52.426Z,4.90
2023-08-12T14:47:19.675Z,4.50
2023-08-12T14:49:50.514Z,2.70
2023-08-12T14:52:18.890Z,2.10
2023-08-12T14:54:46.250Z,4.30
2023-08-12T14:57:13.372Z,2.70
2023-08-12T14:59:40.549Z,4.40
2023-08-12T15:02:07.689Z,4.50
2023-08-12T15:04:34.728Z,2.70
2023-08-12T15:07:02.414Z,2.40
2023-08-12T15:09:30.648Z,7.50
2023-08-12T15:11:57.624Z,10.50
2023-08-12T15:14:24.519Z,6.00
2023-08-12T15:16:51.404Z,11.80
2023-08-12T15:19:18.459Z,5.90
2023-08-12T15:21:45.194Z,3.30
2023-08-12T15:24:12.131Z,2.90
2023-08-12T15:26:38.969Z,5.50
2023-08-12T15:29:05.939Z,3.10
2023-08-12T15:31:33.272Z,4.40
2023-08-12T15:34:00.011Z,3.50
2023-08-12T15:36:26.866Z,4.80
2023-08-12T15:38:54.104Z,5.10
2023-08-12T15:41:22.687Z,2.60
2023-08-12T15:43:49.969Z,4.60
2023-08-12T15:46:16.998Z,7.00
2023-08-12T15:48:44.094Z,6.10
2023-08-12T15:51:11.081Z,5.60
2023-08-12T15:53:38.025Z,3.80
2023-08-12T15:56:04.974Z,3.00
2023-08-12T15:58:32.014Z,5.50
2023-08-12T16:01:00.185Z,7.10
2023-08-12T16:03:27.309Z,3.60
2023-08-12T16:05:57.788Z,5.30
2023-08-12T16:08:24.601Z,5.00
2023-08-12T16:10:52.074Z,4.70
2023-08-12T16:13:19.669Z,9.80
2023-08-12T16:15:47.719Z,8.40
2023-08-12T16:18:15.165Z,3.70
2023-08-12T16:20:42.093Z,6.90
2023-08-12T16:23:09.026Z,6.60
2023-08-12T16:25:36.179Z,3.20
2023-08-12T16:28:03.643Z,12.60
2023-08-12T16:30:30.782Z,6.10
2023-08-12T16:32:57.646Z,3.20
2023-08-12T16:35:24.594Z,3.70
2023-08-12T16:37:51.619Z,3.80
2023-08-12T16:40:19.071Z,5.80
2023-08-12T16:42:45.916Z,12.30
2023-08-12T16:45:13.473Z,7.80
2023-08-12T16:47:40.474Z,9.40
2023-08-12T16:50:08.094Z,7.50
2023-08-12T16:52:34.924Z,9.50
2023-08-12T16:55:01.864Z,10.00
2023-08-12T16:57:28.714Z,4.60
2023-08-12T16:59:55.955Z,8.50
2023-08-12T17:02:22.811Z,7.90
2023-08-12T17:04:49.741Z,7.90
2023-08-12T17:07:16.787Z,9.40
2023-08-12T17:09:45.871Z,16.60
2023-08-12T17:12:14.486Z,13.50
2023-08-12T17:14:41.824Z,40.70
2023-08-12T17:17:09.388Z,67.40
2023-08-12T17:19:36.731Z,65.00
2023-08-12T17:22:04.529Z,50.80
2023-08-12T17:24:33.582Z,58.10
2023-08-12T17:27:01.145Z,31.00
2023-08-12T17:29:27.892Z,35.50
2023-08-12T17:31:54.736Z,13.50
2023-08-12T17:34:21.564Z,14.80
2023-08-12T17:36:48.511Z,11.60
2023-08-12T17:39:15.291Z,8.40
2023-08-12T17:41:42.302Z,15.00
2023-08-12T17:44:09.239Z,6.30
2023-08-12T17:46:36.337Z,7.10
2023-08-12T17:49:03.645Z,6.30
2023-08-12T17:51:30.794Z,6.10
2023-08-12T17:53:57.667Z,8.30
2023-08-12T17:56:24.472Z,27.40
2023-08-12T17:58:51.213Z,15.90
2023-08-12T18:01:18.389Z,19.60
2023-08-12T18:03:45.542Z,17.00
2023-08-12T18:06:13.172Z,44.00
2023-08-12T18:08:40.015Z,35.90
2023-08-12T18:11:06.864Z,39.40
2023-08-12T18:13:34.008Z,40.00
2023-08-12T18:16:00.901Z,35.50
2023-08-12T18:18:28.196Z,39.40
2023-08-12T18:20:55.664Z,40.70
2023-08-12T18:23:22.603Z,34.90
2023-08-12T18:25:49.805Z,30.40
2023-08-12T18:28:16.703Z,31.50
2023-08-12T18:30:44.496Z,32.20
2023-08-12T18:33:11.324Z,38.40
2023-08-12T18:35:38.242Z,44.60
2023-08-12T18:38:05.907Z,35.40
2023-08-12T18:40:33.509Z,36.70
2023-08-12T18:43:00.916Z,33.00
2023-08-12T18:45:29.307Z,34.20
2023-08-12T18:47:56.802Z,22.90
2023-08-12T18:50:24.629Z,32.00
2023-08-12T18:52:51.985Z,35.40
2023-08-12T18:55:20.801Z,28.30
2023-08-12T18:57:47.909Z,18.10
2023-08-12T19:00:15.990Z,19.70
2023-08-12T19:02:42.987Z,18.30
2023-08-12T19:05:10.170Z,15.20
2023-08-12T19:07:37.119Z,12.90
2023-08-12T19:10:04.573Z,14.80
2023-08-12T19:12:32.128Z,15.60
2023-08-12T19:14:58.970Z,12.60
2023-08-12T19:17:25.821Z,11.40
2023-08-12T19:19:52.756Z,8.90
2023-08-12T19:22:20.013Z,15.00
2023-08-12T19:24:46.952Z,16.70
2023-08-12T19:27:13.902Z,11.10
2023-08-12T19:29:40.741Z,7.20
2023-08-12T19:32:07.597Z,11.30
2023-08-12T19:34:34.765Z,10.40
2023-08-12T19:37:01.599Z,6.00
2023-08-12T19:39:28.525Z,7.30
2023-08-12T19:41:55.565Z,5.70
2023-08-12T19:44:23.631Z,11.00
2023-08-12T19:46:50.586Z,10.60
2023-08-12T19:49:17.418Z,14.30
2023-08-12T19:51:44.262Z,5.70
2023-08-12T19:54:11.101Z,7.10
2023-08-12T19:56:37.942Z,6.80
2023-08-12T19:59:04.787Z,10.40
2023-08-12T20:01:32.373Z,8.60
2023-08-12T20:03:59.338Z,4.20
2023-08-12T20:06:26.439Z,6.90
2023-08-12T20:08:53.484Z,6.90
2023-08-12T20:11:21.445Z,7.10
2023-08-12T20:13:48.391Z,5.50
2023-08-12T20:16:15.252Z,3.70
2023-08-12T20:18:42.077Z,9.20
2023-08-12T20:21:08.923Z,5.40
2023-08-12T20:23:35.874Z,15.30
2023-08-12T20:26:03.010Z,12.30
2023-08-12T20:28:29.965Z,5.70
2023-08-12T20:30:57.310Z,3.90
2023-08-12T20:36:25.093Z,4.70
2023-08-12T20:38:51.933Z,4.50
2023-08-12T20:41:18.797Z,7.60
2023-08-12T20:43:45.717Z,2.80
2023-08-12T20:46:12.573Z,14.30
2023-08-12T20:48:39.407Z,8.70
2023-08-12T20:51:06.967Z,8.10
2023-08-12T20:53:33.910Z,7.80
2023-08-12T20:56:01.923Z,7.30
2023-08-12T20:58:29.225Z,3.70
2023-08-12T21:00:56.389Z,9.80
2023-08-12T21:03:23.371Z,4.90
2023-08-12T21:05:53.744Z,4.50
2023-08-12T21:08:20.590Z,5.90
2023-08-12T21:10:54.494Z,5.40
2023-08-12T21:13:21.661Z,7.90
2023-08-12T21:15:48.707Z,7.10
2023-08-12T21:18:15.637Z,5.40
2023-08-12T21:20:42.475Z,13.60
2023-08-12T21:23:09.526Z,3.50
2023-08-12T21:25:36.674Z,16.00
2023-08-12T21:28:04.132Z,7.20
2023-08-12T21:30:31.218Z,5.70
2023-08-12T21:32:58.180Z,3.50
2023-08-12T21:35:25.073Z,6.00
2023-08-12T21:37:51.803Z,12.10
2023-08-12T21:40:18.746Z,13.40
2023-08-12T21:42:45.700Z,6.40
2023-08-12T21:45:12.535Z,3.80
2023-08-12T21:47:39.292Z,9.00
2023-08-12T21:50:07.344Z,11.40
2023-08-12T21:52:34.392Z,8.40
2023-08-12T21:55:01.234Z,5.50
2023-08-12T21:57:28.280Z,9.00
2023-08-12T21:59:55.121Z,8.60
2023-08-12T22:02:25.647Z,7.10
2023-08-12T22:04:53.457Z,9.40
2023-08-12T22:07:20.462Z,10.40
2023-08-12T22:09:47.402Z,3.60
2023-08-12T22:12:15.512Z,8.90
2023-08-12T22:14:42.520Z,10.90
2023-08-12T22:17:09.569Z,6.90
2023-08-12T22:19:36.717Z,5.20
2023-08-12T22:22:18.658Z,6.40
2023-08-12T22:24:47.634Z,10.40
2023-08-12T22:27:14.459Z,5.50
2023-08-12T22:29:41.704Z,5.90
2023-08-12T22:32:08.948Z,3.80
2023-08-12T22:34:35.903Z,7.90
2023-08-12T22:37:02.832Z,8.60
2023-08-12T22:39:29.680Z,7.40
2023-08-12T22:41:56.531Z,4.10
2023-08-12T22:44:23.370Z,11.30
2023-08-12T22:46:51.099Z,2.90
2023-08-12T22:49:18.074Z,4.60
2023-08-12T22:51:44.804Z,4.50
2023-08-12T22:54:11.650Z,6.70
2023-08-12T22:56:38.999Z,10.50
2023-08-12T22:59:05.964Z,6.30
2023-08-12T23:01:32.783Z,10.60
2023-08-12T23:03:59.629Z,10.50
2023-08-12T23:06:26.673Z,3.60
2023-08-12T23:08:53.524Z,6.10
2023-08-12T23:11:21.329Z,9.10
2023-08-12T23:13:48.546Z,7.60
2023-08-12T23:16:15.403Z,5.20
2023-08-12T23:18:42.314Z,9.70
2023-08-12T23:21:09.382Z,5.20
2023-08-12T23:23:36.106Z,4.30
2023-08-12T23:26:03.765Z,8.90
2023-08-12T23:28:30.614Z,6.80
2023-08-12T23:30:59.323Z,5.60
2023-08-12T23:33:26.237Z,6.30
2023-08-12T23:35:53.488Z,7.40
2023-08-12T23:38:20.634Z,9.10
2023-08-12T23:40:47.478Z,9.10
2023-08-12T23:43:14.528Z,9.90
2023-08-12T23:45:41.369Z,6.10
2023-08-12T23:48:08.448Z,13.10
2023-08-12T23:50:35.352Z,12.20
2023-08-12T23:53:02.196Z,7.90
2023-08-12T23:55:29.254Z,3.80
2023-08-12T23:57:56.088Z,5.30
